createdAt,value
2017-06-18T00:00:08.313Z,21.00
2017-06-18T00:02:37.363Z,21.10
2017-06-18T00:05:05.613Z,21.00
2017-06-18T00:07:33.876Z,21.10
2017-06-18T00:10:02.148Z,21.10
2017-06-18T00:12:30.491Z,21.10
2017-06-18T00:14:58.850Z,21.10
2017-06-18T00:17:27.097Z,21.10
2017-06-18T00:19:55.394Z,21.10
2017-06-18T00:22:23.774Z,21.10
2017-06-18T00:24:52.117Z,21.00
2017-06-18T00:27:20.381Z,21.10
2017-06-18T00:29:49.389Z,21.00
2017-06-18T00:32:17.656Z,21.00
2017-06-18T00:34:45.912Z,21.00
2017-06-18T00:37:14.154Z,21.00
2017-06-18T00:39:42.430Z,20.90
2017-06-18T00:42:11.477Z,20.90
2017-06-18T00:44:39.747Z,20.90
2017-06-18T00:47:08.779Z,20.90
2017-06-18T00:49:37.054Z,20.90
2017-06-18T00:52:05.295Z,20.90
2017-06-18T00:54:33.542Z,20.90
2017-06-18T00:57:01.801Z,20.90
2017-06-18T00:59:30.035Z,20.90
2017-06-18T01:01:58.369Z,20.90
2017-06-18T01:04:26.633Z,20.90
2017-06-18T01:06:54.978Z,20.90
2017-06-18T01:09:23.229Z,20.90
2017-06-18T01:11:51.469Z,20.90
2017-06-18T01:14:19.849Z,20.90
2017-06-18T01:16:48.448Z,20.90
2017-06-18T01:19:17.580Z,20.90
2017-06-18T01:21:45.833Z,20.90
2017-06-18T01:24:14.104Z,20.90
2017-06-18T01:26:42.417Z,20.90
2017-06-18T01:29:10.666Z,20.90
2017-06-18T01:31:38.948Z,20.90
2017-06-18T01:34:07.212Z,20.80
2017-06-18T01:36:35.478Z,20.80
2017-06-18T01:39:04.485Z,20.70
2017-06-18T01:41:32.766Z,20.70
2017-06-18T01:44:01.486Z,20.70
2017-06-18T01:46:29.946Z,20.70
2017-06-18T01:48:58.231Z,20.70
2017-06-18T01:51:26.450Z,20.70
2017-06-18T01:53:55.488Z,20.70
2017-06-18T01:56:23.732Z,20.70
2017-06-18T01:58:52.064Z,20.70
2017-06-18T02:01:20.331Z,20.70
2017-06-18T02:03:48.597Z,20.70
2017-06-18T02:06:16.872Z,20.70
2017-06-18T02:08:45.213Z,20.70
2017-06-18T02:11:13.558Z,20.70
2017-06-18T02:13:41.902Z,20.60
2017-06-18T02:16:10.180Z,20.50
2017-06-18T02:18:38.440Z,20.50
2017-06-18T02:21:06.789Z,20.50
2017-06-18T02:23:35.805Z,20.50
2017-06-18T02:26:04.128Z,20.50
2017-06-18T02:28:32.471Z,20.50
2017-06-18T02:31:00.713Z,20.50
2017-06-18T02:33:29.030Z,20.50
2017-06-18T02:35:57.320Z,20.50
2017-06-18T02:38:25.561Z,20.50
2017-06-18T02:40:53.824Z,20.50
2017-06-18T02:43:22.131Z,20.50
2017-06-18T02:45:50.478Z,20.50
2017-06-18T02:48:18.733Z,20.40
2017-06-18T02:50:47.773Z,20.40
2017-06-18T02:53:16.073Z,20.40
2017-06-18T02:55:44.313Z,20.40
2017-06-18T02:58:12.586Z,20.40
2017-06-18T03:00:40.904Z,20.40
2017-06-18T03:03:09.150Z,20.40
2017-06-18T03:05:37.480Z,20.30
2017-06-18T03:08:05.717Z,20.30
2017-06-18T03:10:34.094Z,20.30
2017-06-18T03:13:02.461Z,20.30
2017-06-18T03:15:30.713Z,20.20
2017-06-18T03:17:58.962Z,20.20
2017-06-18T03:20:27.992Z,20.20
2017-06-18T03:23:01.956Z,20.20
2017-06-18T03:25:30.985Z,20.20
2017-06-18T03:27:59.284Z,20.10
2017-06-18T03:30:27.557Z,20.10
2017-06-18T03:32:55.932Z,20.10
2017-06-18T03:35:24.164Z,20.00
2017-06-18T03:37:52.509Z,19.90
2017-06-18T03:40:21.609Z,19.90
2017-06-18T03:42:49.888Z,19.90
2017-06-18T03:45:18.129Z,19.80
2017-06-18T03:47:46.377Z,19.80
2017-06-18T03:50:14.681Z,19.70
2017-06-18T03:52:42.989Z,19.60
2017-06-18T03:55:11.249Z,19.60
2017-06-18T03:57:39.617Z,19.50
2017-06-18T04:00:07.861Z,19.50
2017-06-18T04:02:36.123Z,19.50
2017-06-18T04:05:05.139Z,19.40
2017-06-18T04:07:33.397Z,19.40
2017-06-18T04:10:01.645Z,19.30
2017-06-18T04:12:29.909Z,19.30
2017-06-18T04:14:58.156Z,19.30
2017-06-18T04:17:26.529Z,19.30
2017-06-18T04:19:54.776Z,19.20
2017-06-18T04:22:23.111Z,19.20
2017-06-18T04:24:51.352Z,19.30
2017-06-18T04:27:19.595Z,19.30
2017-06-18T04:29:48.628Z,19.30
2017-06-18T04:32:16.868Z,19.30
2017-06-18T04:34:45.205Z,19.40
2017-06-18T04:37:13.559Z,19.30
2017-06-18T04:39:41.814Z,19.30
2017-06-18T04:42:10.073Z,19.30
2017-06-18T04:44:38.382Z,19.40
2017-06-18T04:47:06.632Z,19.40
2017-06-18T04:49:34.883Z,19.40
2017-06-18T04:52:03.140Z,19.40
2017-06-18T04:54:31.486Z,19.40
2017-06-18T04:56:59.738Z,19.40
2017-06-18T04:59:27.986Z,19.50
2017-06-18T05:01:56.353Z,19.50
2017-06-18T05:04:24.673Z,19.50
2017-06-18T05:06:52.965Z,19.50
2017-06-18T05:09:21.212Z,19.50
2017-06-18T05:11:49.475Z,19.60
2017-06-18T05:14:18.552Z,19.70
2017-06-18T05:16:46.907Z,19.70
2017-06-18T05:19:15.956Z,19.70
2017-06-18T05:21:44.261Z,19.70
2017-06-18T05:24:12.514Z,19.80
2017-06-18T05:26:40.895Z,19.80
2017-06-18T05:29:09.341Z,19.80
2017-06-18T05:31:37.664Z,19.90
2017-06-18T05:34:05.912Z,20.00
2017-06-18T05:36:34.161Z,20.00
2017-06-18T05:39:03.185Z,20.20
2017-06-18T05:41:31.529Z,20.10
2017-06-18T05:43:59.792Z,20.20
2017-06-18T05:46:28.052Z,20.30
2017-06-18T05:48:56.317Z,20.40
2017-06-18T05:51:25.602Z,20.50
2017-06-18T05:53:53.959Z,20.60
2017-06-18T05:56:22.273Z,20.70
2017-06-18T05:58:50.627Z,20.90
2017-06-18T06:01:18.929Z,20.90
2017-06-18T06:03:47.383Z,21.00
2017-06-18T06:06:15.745Z,21.20
2017-06-18T06:08:44.016Z,21.40
2017-06-18T06:11:12.328Z,21.70
2017-06-18T06:14:15.613Z,22.40
2017-06-18T06:16:43.861Z,23.40
2017-06-18T06:19:12.129Z,24.20
2017-06-18T06:21:41.151Z,25.40
2017-06-18T06:24:09.419Z,25.40
2017-06-18T06:26:37.747Z,25.80
2017-06-18T06:29:06.009Z,25.90
2017-06-18T06:31:34.339Z,25.90
2017-06-18T06:34:02.609Z,25.80
2017-06-18T06:36:31.613Z,25.90
2017-06-18T06:38:59.980Z,25.90
2017-06-18T06:41:28.203Z,26.30
2017-06-18T06:43:56.568Z,26.80
2017-06-18T06:46:25.125Z,27.70
2017-06-18T06:48:53.582Z,28.10
2017-06-18T06:51:21.810Z,28.30
2017-06-18T06:53:50.112Z,28.00
2017-06-18T06:56:18.399Z,27.80
2017-06-18T06:58:46.656Z,27.50
2017-06-18T07:01:15.009Z,27.20
2017-06-18T07:03:43.387Z,27.00
2017-06-18T07:06:11.629Z,26.80
2017-06-18T07:08:39.953Z,26.80
2017-06-18T07:11:08.208Z,26.80
2017-06-18T07:13:37.109Z,26.80
2017-06-18T07:16:05.364Z,26.90
2017-06-18T07:18:33.700Z,26.80
2017-06-18T07:21:01.928Z,26.90
2017-06-18T07:23:30.194Z,26.90
2017-06-18T07:25:58.432Z,26.90
2017-06-18T07:28:27.476Z,27.10
2017-06-18T07:30:55.734Z,27.00
2017-06-18T07:33:24.024Z,27.30
2017-06-18T07:35:52.266Z,27.70
2017-06-18T07:38:21.271Z,28.40
2017-06-18T07:40:49.544Z,28.40
2017-06-18T07:43:17.814Z,28.50
2017-06-18T07:45:46.802Z,28.20
2017-06-18T07:48:15.824Z,28.20
2017-06-18T07:50:44.080Z,28.20
2017-06-18T07:53:13.081Z,28.70
2017-06-18T07:55:41.323Z,28.70
2017-06-18T07:58:09.699Z,28.70
2017-06-18T08:00:38.717Z,28.70
2017-06-18T08:03:07.017Z,28.60
2017-06-18T08:05:35.393Z,28.70
2017-06-18T08:08:03.631Z,28.90
2017-06-18T08:10:32.649Z,29.20
2017-06-18T08:13:00.941Z,29.20
2017-06-18T08:15:29.205Z,29.30
2017-06-18T08:17:57.489Z,29.30
2017-06-18T08:20:25.733Z,29.40
2017-06-18T08:22:53.968Z,29.40
2017-06-18T08:25:22.217Z,29.40
2017-06-18T08:27:50.494Z,29.60
2017-06-18T08:30:18.769Z,29.60
2017-06-18T08:32:47.145Z,29.60
2017-06-18T08:35:15.419Z,29.80
2017-06-18T08:37:43.748Z,30.00
2017-06-18T08:40:12.108Z,30.00
2017-06-18T08:42:40.463Z,30.30
2017-06-18T08:45:08.746Z,30.60
2017-06-18T08:47:37.069Z,30.80
2017-06-18T08:50:06.073Z,31.00
2017-06-18T08:52:34.337Z,30.90
2017-06-18T08:55:03.331Z,31.00
2017-06-18T08:57:32.346Z,31.00
2017-06-18T09:00:00.589Z,31.00
2017-06-18T09:02:29.609Z,31.00
2017-06-18T09:04:57.901Z,30.90
2017-06-18T09:07:26.232Z,31.10
2017-06-18T09:09:55.250Z,30.90
2017-06-18T09:12:23.516Z,30.90
2017-06-18T09:14:52.785Z,30.90
2017-06-18T09:17:21.021Z,30.90
2017-06-18T09:19:49.264Z,31.10
2017-06-18T09:22:17.628Z,31.20
2017-06-18T09:24:46.663Z,31.70
2017-06-18T09:27:14.901Z,31.60
2017-06-18T09:29:44.043Z,31.90
2017-06-18T09:32:12.329Z,31.80
2017-06-18T09:34:40.597Z,32.50
2017-06-18T09:37:08.865Z,32.60
2017-06-18T09:39:37.129Z,32.60
2017-06-18T09:42:05.373Z,32.20
2017-06-18T09:44:34.380Z,32.00
2017-06-18T09:47:02.633Z,32.00
2017-06-18T09:49:32.272Z,31.70
2017-06-18T09:52:00.566Z,31.70
2017-06-18T09:54:28.829Z,31.70
2017-06-18T09:56:57.142Z,31.40
2017-06-18T09:59:25.403Z,31.00
2017-06-18T10:01:53.879Z,30.90
2017-06-18T10:04:22.118Z,30.90
2017-06-18T10:06:50.832Z,31.00
2017-06-18T10:09:19.073Z,30.60
2017-06-18T10:11:47.381Z,30.70
2017-06-18T10:14:15.649Z,30.60
2017-06-18T10:16:43.904Z,30.60
2017-06-18T10:19:12.225Z,30.60
2017-06-18T10:21:58.317Z,31.40
2017-06-18T10:24:26.550Z,32.60
2017-06-18T10:26:54.853Z,33.10
2017-06-18T10:29:23.081Z,32.90
2017-06-18T10:31:52.077Z,32.70
2017-06-18T10:34:21.156Z,33.20
2017-06-18T10:36:49.535Z,33.10
2017-06-18T10:39:17.789Z,34.20
2017-06-18T10:41:46.021Z,34.80
2017-06-18T10:44:14.284Z,36.10
2017-06-18T10:46:42.609Z,37.40
2017-06-18T10:49:10.861Z,37.90
2017-06-18T10:51:39.198Z,38.20
2017-06-18T10:54:07.523Z,37.40
2017-06-18T10:56:35.779Z,36.00
2017-06-18T10:59:04.021Z,35.50
2017-06-18T11:01:33.110Z,36.70
2017-06-18T11:04:02.175Z,37.20
2017-06-18T11:06:30.409Z,37.20
2017-06-18T11:08:58.644Z,36.50
2017-06-18T11:11:26.991Z,35.00
2017-06-18T11:13:55.231Z,34.30
2017-06-18T11:16:23.581Z,33.80
2017-06-18T11:18:52.604Z,33.20
2017-06-18T11:21:20.918Z,33.20
2017-06-18T11:23:49.161Z,32.70
2017-06-18T11:26:17.425Z,33.00
2017-06-18T11:28:45.674Z,34.00
2017-06-18T11:31:13.924Z,34.00
2017-06-18T11:33:42.156Z,33.70
2017-06-18T11:36:10.989Z,33.70
2017-06-18T11:38:39.229Z,33.60
2017-06-18T11:41:07.480Z,33.90
2017-06-18T11:43:35.788Z,34.80
2017-06-18T11:46:04.060Z,35.70
2017-06-18T11:48:32.396Z,35.30
2017-06-18T11:51:01.485Z,34.50
2017-06-18T11:53:29.769Z,34.50
2017-06-18T11:55:58.941Z,34.20
2017-06-18T11:58:27.173Z,34.20
2017-06-18T12:00:55.409Z,33.70
2017-06-18T12:03:24.526Z,32.10
2017-06-18T12:05:52.775Z,32.10
2017-06-18T12:08:21.043Z,31.80
2017-06-18T12:10:49.595Z,31.30
2017-06-18T12:13:17.957Z,30.80
2017-06-18T12:15:46.204Z,30.30
2017-06-18T12:18:15.240Z,29.40
2017-06-18T12:20:43.610Z,29.40
2017-06-18T12:23:11.883Z,28.90
2017-06-18T12:28:14.701Z,28.60
2017-06-18T12:30:42.941Z,28.40
2017-06-18T12:33:11.180Z,28.30
2017-06-18T12:35:40.198Z,28.20
2017-06-18T12:38:08.465Z,28.10
2017-06-18T12:40:36.815Z,28.10
2017-06-18T12:43:05.044Z,28.10
2017-06-18T12:45:33.313Z,28.20
2017-06-18T12:48:01.566Z,28.10
2017-06-18T12:50:30.738Z,27.90
2017-06-18T12:52:58.954Z,27.80
2017-06-18T12:55:27.213Z,28.00
2017-06-18T12:57:55.930Z,28.10
2017-06-18T13:00:24.246Z,28.50
2017-06-18T13:02:52.477Z,29.30
2017-06-18T13:05:20.754Z,29.40
2017-06-18T13:07:49.057Z,29.80
2017-06-18T13:10:17.306Z,30.10
2017-06-18T13:12:45.573Z,29.90
2017-06-18T13:15:13.860Z,29.60
2017-06-18T13:17:42.132Z,29.30
2017-06-18T13:20:10.354Z,29.00
2017-06-18T13:22:38.686Z,28.80
2017-06-18T13:25:06.927Z,28.50
2017-06-18T13:27:35.950Z,28.10
2017-06-18T13:30:04.222Z,28.20
2017-06-18T13:32:32.477Z,28.00
2017-06-18T13:35:00.728Z,27.90
2017-06-18T13:37:29.759Z,27.70
2017-06-18T13:40:03.609Z,27.70
2017-06-18T13:42:32.689Z,27.50
2017-06-18T13:45:00.954Z,27.40
2017-06-18T13:47:29.217Z,27.30
2017-06-18T13:49:57.512Z,27.10
2017-06-18T13:52:25.746Z,27.10
2017-06-18T13:54:54.052Z,27.00
2017-06-18T13:57:22.381Z,26.90
2017-06-18T13:59:51.397Z,27.00
2017-06-18T14:02:19.642Z,27.00
2017-06-18T14:04:47.900Z,27.00
2017-06-18T14:07:16.250Z,26.90
2017-06-18T14:09:44.501Z,26.90
2017-06-18T14:12:12.795Z,26.90
2017-06-18T14:14:41.125Z,27.00
2017-06-18T14:17:10.238Z,27.00
2017-06-18T14:19:38.509Z,27.00
2017-06-18T14:22:06.970Z,27.00
2017-06-18T14:24:35.220Z,27.00
2017-06-18T14:27:03.524Z,27.00
2017-06-18T14:29:31.797Z,26.90
2017-06-18T14:32:00.807Z,26.80
2017-06-18T14:34:29.822Z,26.80
2017-06-18T14:36:58.317Z,26.80
2017-06-18T14:39:26.593Z,26.80
2017-06-18T14:41:54.869Z,26.80
2017-06-18T14:44:23.102Z,26.70
2017-06-18T14:46:52.139Z,26.60
2017-06-18T14:49:20.459Z,26.60
2017-06-18T14:51:48.707Z,26.50
2017-06-18T14:54:16.938Z,26.50
2017-06-18T14:56:45.241Z,26.50
2017-06-18T14:59:13.548Z,26.50
2017-06-18T15:01:41.887Z,26.60
2017-06-18T15:04:10.164Z,26.50
2017-06-18T15:06:38.492Z,26.50
2017-06-18T15:09:06.734Z,26.50
2017-06-18T15:11:34.994Z,26.40
2017-06-18T15:14:03.252Z,26.30
2017-06-18T15:16:31.504Z,26.30
2017-06-18T15:19:00.526Z,26.40
2017-06-18T15:21:28.782Z,26.30
2017-06-18T15:23:57.145Z,26.40
2017-06-18T15:26:26.149Z,26.30
2017-06-18T15:28:54.453Z,26.30
2017-06-18T15:31:22.749Z,26.20
2017-06-18T15:33:51.002Z,26.20
2017-06-18T15:36:19.248Z,26.30
2017-06-18T15:38:47.557Z,26.20
2017-06-18T15:41:15.832Z,26.30
2017-06-18T15:43:44.168Z,26.30
2017-06-18T15:46:13.177Z,26.30
2017-06-18T15:48:41.415Z,26.30
2017-06-18T15:51:09.793Z,26.30
2017-06-18T15:53:38.031Z,26.30
2017-06-18T15:56:06.272Z,26.30
2017-06-18T15:58:34.572Z,26.30
2017-06-18T16:01:02.821Z,26.30
2017-06-18T16:03:31.130Z,26.30
2017-06-18T16:05:59.381Z,26.30
2017-06-18T16:08:27.633Z,26.30
2017-06-18T16:10:56.667Z,26.30
2017-06-18T16:13:24.943Z,26.30
2017-06-18T16:15:53.201Z,26.30
2017-06-18T16:18:21.498Z,26.30
2017-06-18T16:20:49.745Z,26.30
2017-06-18T16:23:18.090Z,26.30
2017-06-18T16:25:47.114Z,26.30
2017-06-18T16:28:15.373Z,26.30
2017-06-18T16:30:44.459Z,26.30
2017-06-18T16:33:12.681Z,26.30
2017-06-18T16:35:40.959Z,26.20
2017-06-18T16:38:09.214Z,26.10
2017-06-18T16:40:37.482Z,26.10
2017-06-18T16:43:06.610Z,26.10
2017-06-18T16:45:34.897Z,26.10
2017-06-18T16:48:03.169Z,26.00
2017-06-18T16:50:31.578Z,26.00
2017-06-18T16:52:59.848Z,26.00
2017-06-18T16:55:28.141Z,26.00
2017-06-18T16:57:57.249Z,26.00
2017-06-18T17:00:26.272Z,26.00
2017-06-18T17:02:54.513Z,26.00
2017-06-18T17:05:23.532Z,26.10
2017-06-18T17:07:51.824Z,26.00
2017-06-18T17:10:20.091Z,26.00
2017-06-18T17:12:48.321Z,26.10
2017-06-18T17:15:17.461Z,26.00
2017-06-18T17:17:45.701Z,26.00
2017-06-18T17:20:14.726Z,25.90
2017-06-18T17:22:43.013Z,25.90
2017-06-18T17:25:11.261Z,25.90
2017-06-18T17:27:39.510Z,25.90
2017-06-18T17:30:08.550Z,25.70
2017-06-18T17:32:36.785Z,25.70
2017-06-18T17:35:05.834Z,25.70
2017-06-18T17:37:34.065Z,25.70
2017-06-18T17:40:02.318Z,25.70
2017-06-18T17:42:30.545Z,25.70
2017-06-18T17:44:58.802Z,25.70
2017-06-18T17:47:27.051Z,25.80
2017-06-18T17:49:56.090Z,25.70
2017-06-18T17:52:24.868Z,25.70
2017-06-18T17:54:53.190Z,25.70
2017-06-18T17:57:21.545Z,25.70
2017-06-18T17:59:49.803Z,25.60
2017-06-18T18:02:18.063Z,25.60
2017-06-18T18:04:46.356Z,25.60
2017-06-18T18:07:14.687Z,25.50
2017-06-18T18:09:43.770Z,25.60
2017-06-18T18:12:12.794Z,25.50
2017-06-18T18:14:41.066Z,25.50
2017-06-18T18:17:09.314Z,25.50
2017-06-18T18:19:37.594Z,25.50
2017-06-18T18:22:05.859Z,25.50
2017-06-18T18:24:34.090Z,25.50
2017-06-18T18:27:02.324Z,25.50
2017-06-18T18:29:31.339Z,25.40
2017-06-18T18:31:59.597Z,25.40
2017-06-18T18:34:27.911Z,25.40
2017-06-18T18:36:56.145Z,25.30
2017-06-18T18:39:25.171Z,25.20
2017-06-18T18:41:53.428Z,25.20
2017-06-18T18:44:22.449Z,25.20
2017-06-18T18:46:50.680Z,25.20
2017-06-18T18:49:19.718Z,25.20
2017-06-18T18:51:47.977Z,25.20
2017-06-18T18:54:16.220Z,25.20
2017-06-18T18:56:45.254Z,25.10
2017-06-18T18:59:13.497Z,25.10
2017-06-18T19:01:42.517Z,25.10
2017-06-18T19:04:10.781Z,25.10
2017-06-18T19:06:39.037Z,25.00
2017-06-18T19:09:08.048Z,25.10
2017-06-18T19:11:36.319Z,25.10
2017-06-18T19:14:04.559Z,25.00
2017-06-18T19:16:32.824Z,25.10
2017-06-18T19:19:01.131Z,25.00
2017-06-18T19:21:30.171Z,25.00
2017-06-18T19:23:58.422Z,25.00
2017-06-18T19:26:26.684Z,25.00
2017-06-18T19:28:55.738Z,25.00
2017-06-18T19:31:24.009Z,24.90
2017-06-18T19:33:52.253Z,24.90
2017-06-18T19:36:20.549Z,24.90
2017-06-18T19:38:48.817Z,25.00
2017-06-18T19:41:17.184Z,24.90
2017-06-18T19:43:45.420Z,24.90
2017-06-18T19:46:14.886Z,24.90
2017-06-18T19:48:43.144Z,24.90
2017-06-18T19:51:11.385Z,24.90
2017-06-18T19:53:39.752Z,24.90
2017-06-18T19:56:08.757Z,24.80
2017-06-18T19:58:37.037Z,24.80
2017-06-18T20:01:05.345Z,24.70
2017-06-18T20:03:33.609Z,24.70
2017-06-18T20:06:01.856Z,24.50
2017-06-18T20:08:30.880Z,24.40
2017-06-18T20:10:59.207Z,24.40
2017-06-18T20:13:28.277Z,24.40
2017-06-18T20:15:56.525Z,24.30
2017-06-18T20:18:24.767Z,24.40
2017-06-18T20:20:53.801Z,24.30
2017-06-18T20:23:22.128Z,24.30
2017-06-18T20:25:51.143Z,24.30
2017-06-18T20:28:19.538Z,24.20
2017-06-18T20:30:47.784Z,24.30
2017-06-18T20:33:16.825Z,24.20
2017-06-18T20:35:45.080Z,24.20
2017-06-18T20:38:13.423Z,24.20
2017-06-18T20:40:42.552Z,24.10
2017-06-18T20:43:10.801Z,24.10
2017-06-18T20:45:39.860Z,24.10
2017-06-18T20:48:08.217Z,24.10
2017-06-18T20:50:36.454Z,24.00
2017-06-18T20:53:04.713Z,24.00
2017-06-18T20:55:33.717Z,23.90
2017-06-18T20:58:02.020Z,23.90
2017-06-18T21:00:30.265Z,24.00
2017-06-18T21:02:59.408Z,24.00
2017-06-18T21:05:27.646Z,23.90
2017-06-18T21:07:55.903Z,23.90
2017-06-18T21:10:24.921Z,23.80
2017-06-18T21:12:54.026Z,23.80
2017-06-18T21:15:22.273Z,23.80
2017-06-18T21:17:51.397Z,23.60
2017-06-18T21:20:19.777Z,23.60
2017-06-18T21:22:48.023Z,23.50
2017-06-18T21:25:17.030Z,23.40
2017-06-18T21:27:45.283Z,23.40
2017-06-18T21:30:14.332Z,23.30
2017-06-18T21:32:42.793Z,23.30
2017-06-18T21:35:11.075Z,23.20
2017-06-18T21:37:39.323Z,23.20
2017-06-18T21:40:07.581Z,23.10
2017-06-18T21:42:36.595Z,23.00
2017-06-18T21:45:04.851Z,22.90
2017-06-18T21:47:33.855Z,22.80
2017-06-18T21:50:02.866Z,22.80
2017-06-18T21:52:31.106Z,22.80
2017-06-18T21:54:59.353Z,22.70
2017-06-18T21:57:27.617Z,22.70
2017-06-18T21:59:55.910Z,22.50
2017-06-18T22:02:24.164Z,22.60
2017-06-18T22:04:52.392Z,22.50
2017-06-18T22:07:21.549Z,22.30
2017-06-18T22:09:49.781Z,22.30
2017-06-18T22:12:18.067Z,22.20
2017-06-18T22:14:46.305Z,22.10
2017-06-18T22:17:15.325Z,22.00
2017-06-18T22:19:43.568Z,22.00
2017-06-18T22:22:12.719Z,21.90
2017-06-18T22:24:40.948Z,21.90
2017-06-18T22:27:10.073Z,21.80
2017-06-18T22:29:38.325Z,21.80
2017-06-18T22:32:06.590Z,21.70
2017-06-18T22:34:35.597Z,21.60
2017-06-18T22:37:03.900Z,21.50
2017-06-18T22:39:32.129Z,21.60
2017-06-18T22:42:01.315Z,21.60
2017-06-18T22:44:29.537Z,21.50
2017-06-18T22:46:57.921Z,21.50
2017-06-18T22:49:26.220Z,21.60
2017-06-18T22:51:54.536Z,21.60
2017-06-18T22:54:23.669Z,21.50
2017-06-18T22:56:51.909Z,21.50
2017-06-18T22:59:20.159Z,21.50
2017-06-18T23:01:48.393Z,21.60
2017-06-18T23:04:16.651Z,21.60
2017-06-18T23:06:44.887Z,21.50
2017-06-18T23:09:13.137Z,21.50
2017-06-18T23:11:41.421Z,21.50
2017-06-18T23:14:09.669Z,21.50
2017-06-18T23:16:37.905Z,21.50
2017-06-18T23:19:06.936Z,21.50
2017-06-18T23:21:35.261Z,21.50
2017-06-18T23:24:03.502Z,21.50
2017-06-18T23:26:31.748Z,21.40
2017-06-18T23:29:00.089Z,21.30
2017-06-18T23:31:28.348Z,21.30
2017-06-18T23:33:56.674Z,21.30
2017-06-18T23:36:24.933Z,21.10
2017-06-18T23:38:53.993Z,21.00
2017-06-18T23:41:22.244Z,20.90
2017-06-18T23:43:50.515Z,21.00
2017-06-18T23:46:18.765Z,21.10
2017-06-18T23:48:47.043Z,21.00
2017-06-18T23:51:15.319Z,21.00
2017-06-18T23:53:43.630Z,21.00
2017-06-18T23:56:11.890Z,20.90
2017-06-18T23:58:40.146Z,20.90
